Etusivu
METAR-TAF:

METAR-TAF

Lentoasemat :

Montego Bay, Jamaika

Leveyspiiri: 18-30N, Pituuspiiri: 077-55W, korkeus merenpinnasta: 1 m

Tämänhetkinen sää

Tämä raportti tehtiin 39 minuuttia sitten, kello 11.00 UTC
Tuuli 4 kn etelästä/kaakosta
Lämpötila 23°C
Kosteus 83%
Ilmanpaine 1014 hPa
Näkyvyys 10 km tai enemmän
Muutamia pilviä 2200 ft:n korkeudessa

METAR: MKJS 161100Z 15004KT 9999 FEW022 23/20 Q1014

Aika: 06:39 (11:39 UTC)

Sääennuste

Tämä raportti tehtiin 24 minuuttia sitten, kello 11.15 UTC
Ennuste voimassa 16. päivästä klo 12 UTC - 17. päivään klo 12 UTC
Tuuli 4 kn etelästä/kaakosta
Näkyvyys 10 km tai enemmän
Muutamia pilviä 2200 ft:n korkeudessa
Tulossa
16. päivästä klo 14 UTC - 16. päivään klo 16 UTC
Tuuli 14 kn idästä/koillisesta
Tulossa
17. päivästä klo 01 UTC - 17. päivään klo 03 UTC
Tuuli 4 kn etelästä/kaakosta

TAF: MKJS 161115Z 1612/1712 15004KT 9999 FEW022 BECMG 1614/1616 06014KT BECMG 1701/1703 15004KT

Säähavainnot ja -ennusteet yli 4000 lentoasemalta (METAR- ja TAF-raportit).

Käytössä olevat sääasemat on merkitty karttaan keltaisilla ja punaisilla pisteillä.

Aseta hiiri pisteen päälle nähdäksesi sääaseman nimen.

Klikkaa sitten nähdäksesi säähavainnot ja -ennusteet.

Kartan vaihtaminen: klikkaa mustalla rastilla varustettuja vihreitä pisteitä, niin voit zoomata sisään; viivalla varustettua vihreää pistettä, niin voit zoomata ulos tai vihreitä nuolia, niin pääset viereisille kartoille.


METAR-TAF: